createdAt,value
2018-07-02T00:02:22.913Z,55.44
2018-07-02T00:04:49.584Z,55.82
2018-07-02T00:07:18.259Z,54.93
2018-07-02T00:09:45.533Z,55.65
2018-07-02T00:12:12.745Z,55.01
2018-07-02T00:14:39.408Z,56.01
2018-07-02T00:17:06.269Z,56.26
2018-07-02T00:19:33.011Z,54.93
2018-07-02T00:21:59.696Z,55.08
2018-07-02T00:24:26.356Z,55.14
2018-07-02T00:26:53.033Z,55.71
2018-07-02T00:29:19.721Z,55.71
2018-07-02T00:31:46.486Z,55.89
2018-07-02T00:34:13.232Z,56.15
2018-07-02T00:36:39.916Z,55.81
2018-07-02T00:39:07.444Z,54.35
2018-07-02T00:41:34.133Z,55.46
2018-07-02T00:44:01.886Z,54.62
2018-07-02T00:46:28.565Z,55.71
2018-07-02T00:48:55.231Z,55.14
2018-07-02T00:51:21.985Z,54.70
2018-07-02T00:53:48.671Z,55.32
2018-07-02T00:56:15.348Z,55.55
2018-07-02T00:58:42.218Z,56.15
2018-07-02T01:01:08.908Z,55.02
2018-07-02T01:03:35.577Z,55.00
2018-07-02T01:06:02.257Z,55.69
2018-07-02T01:08:30.672Z,55.48
2018-07-02T01:10:57.352Z,55.49
2018-07-02T01:13:24.029Z,55.29
2018-07-02T01:15:50.693Z,55.64
2018-07-02T01:18:17.355Z,55.18
2018-07-02T01:20:44.029Z,55.22
2018-07-02T01:23:11.548Z,55.89
2018-07-02T01:25:38.253Z,55.61
2018-07-02T01:28:05.803Z,53.92
2018-07-02T01:30:32.470Z,54.23
2018-07-02T01:32:59.856Z,53.83
2018-07-02T01:35:26.516Z,54.01
2018-07-02T01:37:53.209Z,53.76
2018-07-02T01:40:19.878Z,55.39
2018-07-02T01:42:46.569Z,54.86
2018-07-02T01:45:13.222Z,55.23
2018-07-02T01:47:39.885Z,54.55
2018-07-02T01:50:06.574Z,55.46
2018-07-02T01:52:33.232Z,54.81
2018-07-02T01:55:01.720Z,55.62
2018-07-02T01:57:31.437Z,54.71
2018-07-02T01:59:58.173Z,55.10
2018-07-02T02:02:24.856Z,55.64
2018-07-02T02:04:51.516Z,55.22
2018-07-02T02:07:19.144Z,56.16
2018-07-02T02:09:45.816Z,55.34
2018-07-02T02:12:12.464Z,56.38
2018-07-02T02:14:39.129Z,56.02
2018-07-02T02:17:06.760Z,55.34
2018-07-02T02:19:34.477Z,56.03
2018-07-02T02:22:02.156Z,55.58
2018-07-02T02:24:29.788Z,55.41
2018-07-02T02:26:57.444Z,55.04
2018-07-02T02:29:25.082Z,54.55
2018-07-02T02:31:52.728Z,54.25
2018-07-02T02:34:19.388Z,54.98
2018-07-02T02:36:46.060Z,56.08
2018-07-02T02:39:12.736Z,54.65
2018-07-02T02:41:40.357Z,53.70
2018-07-02T02:44:07.572Z,54.30
2018-07-02T02:46:34.849Z,53.94
2018-07-02T02:49:02.167Z,54.64
2018-07-02T02:51:29.856Z,53.93
2018-07-02T02:53:56.544Z,53.97
2018-07-02T02:56:24.079Z,54.91
2018-07-02T02:58:51.941Z,54.95
2018-07-02T03:01:18.617Z,55.37
2018-07-02T03:03:46.235Z,55.37
2018-07-02T03:06:13.872Z,55.57
2018-07-02T03:08:41.502Z,54.71
2018-07-02T03:11:09.033Z,55.56
2018-07-02T03:13:36.599Z,56.04
2018-07-02T03:16:04.356Z,56.04
2018-07-02T03:18:33.315Z,55.47
2018-07-02T03:21:01.957Z,55.95
2018-07-02T03:23:29.600Z,55.91
2018-07-02T03:25:56.249Z,54.61
2018-07-02T03:28:23.920Z,54.42
2018-07-02T03:30:51.533Z,53.87
2018-07-02T03:33:19.257Z,53.96
2018-07-02T03:35:46.859Z,55.61
2018-07-02T03:38:13.524Z,55.41
2018-07-02T03:40:41.156Z,55.20
2018-07-02T03:43:08.769Z,54.85
2018-07-02T03:45:36.444Z,55.81
2018-07-02T03:48:03.976Z,55.07
2018-07-02T03:50:32.014Z,55.50
2018-07-02T03:52:58.693Z,55.88
2018-07-02T03:55:26.289Z,54.65
2018-07-02T03:57:53.962Z,54.28
2018-07-02T04:00:21.716Z,54.32
2018-07-02T04:02:48.458Z,54.72
2018-07-02T04:05:16.006Z,54.63
2018-07-02T04:07:42.655Z,54.44
2018-07-02T04:10:09.324Z,54.21
2018-07-02T04:12:35.976Z,54.84
2018-07-02T04:15:02.649Z,55.61
2018-07-02T04:17:31.208Z,55.38
2018-07-02T04:19:59.300Z,55.38
2018-07-02T04:22:26.041Z,54.60
2018-07-02T04:24:53.488Z,56.12
2018-07-02T04:27:20.136Z,54.74
2018-07-02T04:29:46.849Z,54.76
2018-07-02T04:32:14.488Z,54.74
2018-07-02T04:34:41.177Z,55.25
2018-07-02T04:37:07.848Z,55.52
2018-07-02T04:39:34.541Z,55.55
2018-07-02T04:42:02.216Z,54.75
2018-07-02T04:44:31.228Z,54.39
2018-07-02T04:46:59.336Z,54.60
2018-07-02T04:49:26.000Z,54.60
2018-07-02T04:51:53.075Z,54.98
2018-07-02T04:54:19.780Z,55.04
2018-07-02T04:56:46.448Z,54.21
2018-07-02T04:59:13.956Z,54.34
2018-07-02T05:01:40.644Z,54.29
2018-07-02T05:04:07.288Z,54.42
2018-07-02T05:06:34.017Z,54.74
2018-07-02T05:09:01.321Z,54.97
2018-07-02T05:11:28.217Z,54.88
2018-07-02T05:13:54.853Z,54.84
2018-07-02T05:16:21.491Z,54.21
2018-07-02T05:18:48.132Z,55.04
2018-07-02T05:21:14.793Z,54.69
2018-07-02T05:23:41.466Z,55.96
2018-07-02T05:26:08.130Z,54.90
2018-07-02T05:28:34.780Z,54.81
2018-07-02T05:31:02.290Z,55.63
2018-07-02T05:33:29.903Z,55.58
2018-07-02T05:35:57.600Z,55.56
2018-07-02T05:38:25.160Z,55.02
2018-07-02T05:40:52.868Z,54.90
2018-07-02T05:43:20.475Z,56.12
2018-07-02T05:45:47.136Z,55.34
2018-07-02T05:48:14.338Z,55.19
2018-07-02T05:50:40.993Z,54.64
2018-07-02T05:53:08.528Z,55.28
2018-07-02T05:55:35.185Z,54.27
2018-07-02T05:58:03.520Z,55.33
2018-07-02T06:00:32.158Z,55.16
2018-07-02T06:02:58.781Z,55.20
2018-07-02T06:05:25.540Z,56.21
2018-07-02T06:07:53.069Z,56.17
2018-07-02T06:10:19.724Z,56.50
2018-07-02T06:12:47.348Z,55.80
2018-07-02T06:15:15.021Z,56.28
2018-07-02T06:17:42.613Z,56.56
2018-07-02T06:20:09.248Z,57.12
2018-07-02T06:22:35.904Z,56.19
2018-07-02T06:25:03.568Z,56.23
2018-07-02T06:27:32.148Z,56.22
2018-07-02T06:29:58.797Z,56.91
2018-07-02T06:32:26.508Z,56.79
2018-07-02T06:34:53.172Z,56.12
2018-07-02T06:37:19.883Z,56.78
2018-07-02T06:39:47.408Z,56.81
2018-07-02T06:42:15.020Z,56.44
2018-07-02T06:44:42.645Z,57.02
2018-07-02T06:47:09.719Z,57.19
2018-07-02T06:49:37.356Z,57.48
2018-07-02T06:52:04.977Z,57.26
2018-07-02T06:54:32.568Z,56.52
2018-07-02T06:57:03.319Z,57.08
2018-07-02T06:59:30.057Z,56.93
2018-07-02T07:01:57.636Z,55.84
2018-07-02T07:04:25.452Z,55.88
2018-07-02T07:06:53.116Z,56.07
2018-07-02T07:09:20.792Z,56.30
2018-07-02T07:11:47.478Z,56.76
2018-07-02T07:14:14.126Z,57.05
2018-07-02T07:16:41.624Z,56.06
2018-07-02T07:21:35.421Z,55.46
2018-07-02T07:24:02.111Z,55.03
2018-07-02T07:26:29.690Z,54.61
2018-07-02T07:28:56.411Z,55.10
2018-07-02T07:31:23.203Z,54.56
2018-07-02T07:33:50.669Z,54.28
2018-07-02T07:36:17.864Z,54.90
2018-07-02T07:38:45.353Z,54.21
2018-07-02T07:41:12.037Z,54.54
2018-07-02T07:43:39.560Z,54.26
2018-07-02T07:46:06.385Z,54.36
2018-07-02T07:48:33.061Z,53.90
2018-07-02T07:51:01.368Z,54.37
2018-07-02T07:53:29.200Z,54.76
2018-07-02T07:55:56.829Z,53.75
2018-07-02T07:58:24.504Z,55.18
2018-07-02T08:00:51.940Z,54.33
2018-07-02T08:03:19.557Z,55.14
2018-07-02T08:05:47.287Z,54.90
2018-07-02T08:08:14.841Z,55.04
2018-07-02T08:10:41.486Z,54.90
2018-07-02T08:13:08.989Z,54.83
2018-07-02T08:15:36.474Z,54.48
2018-07-02T08:18:04.209Z,54.86
2018-07-02T08:20:33.133Z,54.11
2018-07-02T08:22:59.853Z,55.09
2018-07-02T08:25:26.512Z,54.71
2018-07-02T08:27:53.188Z,55.18
2018-07-02T08:30:19.837Z,55.19
2018-07-02T08:32:46.525Z,54.65
2018-07-02T08:35:13.288Z,55.52
2018-07-02T08:37:39.928Z,55.68
2018-07-02T08:40:06.597Z,55.06
2018-07-02T08:42:33.308Z,54.95
2018-07-02T08:45:01.394Z,55.35
2018-07-02T08:47:29.863Z,55.23
2018-07-02T08:49:56.514Z,54.79
2018-07-02T08:52:24.000Z,54.75
2018-07-02T08:54:50.628Z,54.97
2018-07-02T08:57:17.267Z,55.88
2018-07-02T08:59:43.941Z,54.74
2018-07-02T09:02:11.543Z,55.30
2018-07-02T09:04:38.303Z,56.01
2018-07-02T09:07:04.956Z,55.01
2018-07-02T09:09:32.768Z,55.73
2018-07-02T09:12:01.348Z,55.20
2018-07-02T09:14:28.610Z,56.13
2018-07-02T09:16:55.264Z,54.91
2018-07-02T09:19:21.892Z,55.48
2018-07-02T09:21:48.520Z,55.25
2018-07-02T09:24:15.154Z,56.54
2018-07-02T09:26:41.795Z,55.85
2018-07-02T09:29:08.449Z,55.33
2018-07-02T09:31:35.074Z,56.18
2018-07-02T09:34:01.862Z,56.29
2018-07-02T09:36:29.842Z,55.68
2018-07-02T09:38:56.487Z,55.58
2018-07-02T09:41:23.153Z,55.02
2018-07-02T09:43:50.786Z,53.34
2018-07-02T09:46:18.464Z,54.48
2018-07-02T09:48:45.133Z,54.92
2018-07-02T09:51:12.724Z,55.98
2018-07-02T09:53:40.389Z,56.19
2018-07-02T09:56:07.929Z,56.31
2018-07-02T09:58:35.486Z,55.64
2018-07-02T10:01:03.575Z,55.76
2018-07-02T10:03:32.026Z,55.44
2018-07-02T10:06:01.816Z,55.56
2018-07-02T10:08:29.474Z,55.87
2018-07-02T10:10:57.065Z,55.54
2018-07-02T10:13:24.713Z,55.74
2018-07-02T10:15:51.360Z,56.71
2018-07-02T10:18:18.804Z,56.77
2018-07-02T10:20:46.311Z,55.64
2018-07-02T10:23:12.948Z,56.55
2018-07-02T10:25:40.537Z,55.94
2018-07-02T10:28:08.133Z,56.15
2018-07-02T10:30:35.759Z,56.76
2018-07-02T10:33:03.555Z,56.05
2018-07-02T10:35:32.708Z,56.78
2018-07-02T10:38:01.285Z,56.05
2018-07-02T10:40:27.919Z,56.31
2018-07-02T10:42:55.391Z,57.51
2018-07-02T10:45:22.024Z,56.81
2018-07-02T10:47:48.681Z,56.13
2018-07-02T10:50:16.263Z,56.17
2018-07-02T10:52:43.893Z,56.44
2018-07-02T10:55:11.666Z,56.81
2018-07-02T10:57:38.336Z,56.96
2018-07-02T11:00:05.001Z,56.97
2018-07-02T11:02:32.946Z,57.12
2018-07-02T11:05:01.476Z,56.24
2018-07-02T11:07:28.747Z,56.86
2018-07-02T11:09:55.394Z,57.01
2018-07-02T11:12:22.046Z,57.27
2018-07-02T11:14:48.694Z,56.67
2018-07-02T11:17:15.412Z,56.10
2018-07-02T11:19:42.029Z,56.89
2018-07-02T11:22:08.708Z,57.24
2018-07-02T11:24:35.400Z,56.51
2018-07-02T11:27:02.033Z,57.45
2018-07-02T11:29:30.014Z,55.86
2018-07-02T11:31:56.756Z,57.12
2018-07-02T11:34:23.380Z,57.08
2018-07-02T11:36:50.021Z,57.29
2018-07-02T11:39:16.692Z,56.61
2018-07-02T11:41:43.389Z,56.78
2018-07-02T11:44:10.188Z,56.59
2018-07-02T11:46:36.856Z,56.48
2018-07-02T11:49:03.503Z,56.72
2018-07-02T11:51:31.439Z,56.52
2018-07-02T11:53:59.459Z,56.70
2018-07-02T11:56:26.925Z,57.61
2018-07-02T11:58:54.509Z,57.60
2018-07-02T12:04:01.290Z,57.61
2018-07-02T12:06:30.008Z,57.65
2018-07-02T12:08:56.721Z,57.69
2018-07-02T12:11:24.260Z,56.98
2018-07-02T12:13:51.724Z,57.71
2018-07-02T12:16:19.365Z,57.35
2018-07-02T12:18:46.828Z,57.62
2018-07-02T12:21:14.277Z,57.39
2018-07-02T12:23:41.892Z,56.96
2018-07-02T12:26:09.520Z,56.84
2018-07-02T12:28:37.176Z,56.89
2018-07-02T12:31:04.793Z,56.98
2018-07-02T12:33:32.411Z,57.25
2018-07-02T12:36:01.130Z,57.08
2018-07-02T12:38:27.799Z,57.01
2018-07-02T12:40:54.457Z,57.21
2018-07-02T12:43:21.146Z,57.89
2018-07-02T12:45:48.597Z,57.55
2018-07-02T12:48:15.260Z,57.71
2018-07-02T12:50:42.880Z,57.08
2018-07-02T12:53:09.525Z,57.81
2018-07-02T12:55:37.140Z,57.79
2018-07-02T12:58:03.873Z,57.78
2018-07-02T13:00:31.956Z,57.77
2018-07-02T13:03:01.853Z,57.88
2018-07-02T13:05:31.708Z,57.05
2018-07-02T13:07:59.577Z,56.92
2018-07-02T13:10:27.284Z,56.87
2018-07-02T13:12:54.911Z,57.65
2018-07-02T13:15:21.573Z,57.60
2018-07-02T13:17:49.224Z,57.69
2018-07-02T13:20:15.844Z,57.58
2018-07-02T13:22:42.503Z,57.66
2018-07-02T13:25:09.950Z,57.75
2018-07-02T13:27:36.624Z,57.60
2018-07-02T13:30:04.380Z,56.82
2018-07-02T13:32:31.953Z,57.15
2018-07-02T13:35:01.674Z,57.02
2018-07-02T13:37:31.520Z,58.07
2018-07-02T13:39:59.828Z,57.34
2018-07-02T13:42:26.482Z,57.14
2018-07-02T13:44:53.159Z,57.67
2018-07-02T13:47:19.840Z,58.02
2018-07-02T13:49:47.489Z,57.86
2018-07-02T13:52:14.201Z,57.10
2018-07-02T13:54:41.693Z,57.94
2018-07-02T13:57:09.512Z,57.29
2018-07-02T13:59:37.102Z,58.20
2018-07-02T14:02:04.921Z,57.88
2018-07-02T14:04:32.509Z,57.15
2018-07-02T14:07:00.821Z,57.87
2018-07-02T14:09:29.563Z,57.51
2018-07-02T14:14:23.310Z,57.70
2018-07-02T14:16:50.006Z,57.63
2018-07-02T14:19:18.507Z,57.75
2018-07-02T14:21:46.217Z,57.51
2018-07-02T14:26:40.397Z,57.15
2018-07-02T14:29:07.877Z,57.27
2018-07-02T14:31:35.454Z,58.03
2018-07-02T14:34:02.236Z,57.00
2018-07-02T14:36:32.629Z,57.46
2018-07-02T14:39:02.473Z,57.29
2018-07-02T14:41:29.133Z,57.41
2018-07-02T14:43:56.727Z,57.47
2018-07-02T14:46:24.385Z,57.14
2018-07-02T14:48:51.990Z,58.19
2018-07-02T14:51:19.582Z,57.34
2018-07-02T14:53:46.357Z,57.39
2018-07-02T14:56:13.841Z,58.05
2018-07-02T14:58:41.583Z,57.61
2018-07-02T15:01:09.190Z,57.67
2018-07-02T15:03:36.800Z,58.16
2018-07-02T15:06:03.434Z,58.24
2018-07-02T15:08:31.451Z,57.84
2018-07-02T15:11:05.601Z,58.08
2018-07-02T15:13:34.213Z,57.67
2018-07-02T15:16:02.258Z,57.51
2018-07-02T15:18:30.021Z,58.60
2018-07-02T15:20:56.644Z,58.08
2018-07-02T15:23:23.272Z,57.70
2018-07-02T15:25:49.908Z,58.15
2018-07-02T15:28:16.552Z,58.73
2018-07-02T15:30:43.180Z,57.89
2018-07-02T15:33:09.962Z,58.41
2018-07-02T15:35:36.585Z,58.85
2018-07-02T15:38:03.246Z,59.18
2018-07-02T15:40:31.853Z,58.70
2018-07-02T15:42:59.944Z,57.94
2018-07-02T15:45:26.601Z,59.14
2018-07-02T15:47:53.237Z,58.08
2018-07-02T15:50:19.865Z,58.87
2018-07-02T15:52:46.592Z,58.26
2018-07-02T15:55:13.725Z,58.37
2018-07-02T15:57:40.356Z,58.32
2018-07-02T16:00:07.014Z,58.11
2018-07-02T16:02:33.627Z,59.26
2018-07-02T16:05:01.305Z,58.34
2018-07-02T16:07:29.624Z,58.91
2018-07-02T16:09:56.273Z,58.39
2018-07-02T16:12:22.949Z,58.96
2018-07-02T16:14:49.584Z,58.46
2018-07-02T16:17:16.221Z,58.12
2018-07-02T16:19:42.865Z,58.10
2018-07-02T16:22:09.497Z,58.09
2018-07-02T16:24:36.273Z,58.01
2018-07-02T16:27:02.915Z,58.02
2018-07-02T16:29:29.933Z,58.11
2018-07-02T16:31:56.559Z,58.36
2018-07-02T16:34:23.597Z,58.99
2018-07-02T16:36:50.254Z,58.22
2018-07-02T16:39:16.892Z,58.97
2018-07-02T16:41:44.506Z,58.91
2018-07-02T16:44:12.203Z,58.21
2018-07-02T16:46:38.860Z,58.85
2018-07-02T16:49:05.509Z,57.81
2018-07-02T16:51:32.722Z,58.48
2018-07-02T16:54:01.653Z,59.14
2018-07-02T16:56:31.408Z,59.14
2018-07-02T16:58:58.087Z,58.54
2018-07-02T17:01:24.757Z,59.41
2018-07-02T17:03:51.452Z,59.03
2018-07-02T17:06:18.191Z,59.34
2018-07-02T17:08:44.883Z,59.36
2018-07-02T17:11:11.589Z,58.58
2018-07-02T17:13:39.205Z,59.24
2018-07-02T17:16:05.878Z,59.36
2018-07-02T17:19:30.336Z,59.04
2018-07-02T17:21:58.161Z,60.21
2018-07-02T17:24:24.832Z,59.47
2018-07-02T17:26:51.481Z,59.86
2018-07-02T17:29:18.155Z,59.25
2018-07-02T17:31:44.802Z,58.56
2018-07-02T17:34:11.477Z,57.68
2018-07-02T17:36:38.132Z,56.89
2018-07-02T17:39:06.404Z,55.77
2018-07-02T17:41:33.062Z,56.74
2018-07-02T17:44:01.888Z,54.71
2018-07-02T17:46:29.697Z,56.18
2018-07-02T17:48:56.408Z,55.92
2018-07-02T17:51:23.048Z,56.54
2018-07-02T17:53:49.756Z,55.05
2018-07-02T17:56:17.385Z,55.52
2018-07-02T17:58:44.031Z,56.98
2018-07-02T18:01:10.744Z,56.79
2018-07-02T18:03:37.360Z,57.08
2018-07-02T18:06:04.077Z,57.10
2018-07-02T18:08:32.145Z,56.68
2018-07-02T18:11:01.794Z,57.43
2018-07-02T18:13:29.877Z,57.34
2018-07-02T18:15:57.480Z,57.39
2018-07-02T18:18:25.121Z,56.70
2018-07-02T18:20:52.709Z,56.72
2018-07-02T18:23:19.343Z,57.45
2018-07-02T18:25:45.986Z,57.62
2018-07-02T18:28:12.615Z,57.68
2018-07-02T18:30:39.260Z,56.65
2018-07-02T18:33:05.943Z,56.91
2018-07-02T18:35:32.581Z,56.93
2018-07-02T18:38:01.639Z,57.87
2018-07-02T18:40:29.030Z,57.89
2018-07-02T18:42:56.765Z,57.96
2018-07-02T18:45:23.434Z,58.05
2018-07-02T18:47:50.085Z,58.04
2018-07-02T18:50:16.788Z,58.15
2018-07-02T18:52:43.436Z,57.92
2018-07-02T18:55:10.097Z,57.19
2018-07-02T18:57:36.760Z,58.18
2018-07-02T19:00:04.817Z,58.04
2018-07-02T19:02:32.417Z,58.28
2018-07-02T19:05:01.365Z,57.46
2018-07-02T19:07:29.761Z,57.50
2018-07-02T19:09:57.348Z,58.49
2018-07-02T19:12:24.889Z,58.64
2018-07-02T19:14:52.541Z,57.78
2018-07-02T19:17:19.188Z,57.83
2018-07-02T19:19:45.820Z,57.75
2018-07-02T19:22:13.303Z,58.51
2018-07-02T19:24:40.892Z,58.58
2018-07-02T19:27:08.529Z,58.60
2018-07-02T19:29:36.195Z,58.67
2018-07-02T19:32:03.851Z,58.65
2018-07-02T19:34:31.716Z,58.53
2018-07-02T19:36:59.429Z,57.92
2018-07-02T19:39:26.974Z,58.70
2018-07-02T19:41:54.454Z,58.78
2018-07-02T19:44:22.103Z,58.58
2018-07-02T19:46:49.573Z,58.33
2018-07-02T19:49:16.235Z,58.11
2018-07-02T19:51:42.891Z,58.54
2018-07-02T19:54:10.520Z,58.22
2018-07-02T19:56:38.205Z,58.51
2018-07-02T19:59:04.829Z,57.86
2018-07-02T20:01:32.233Z,58.32
2018-07-02T20:06:27.307Z,58.37
2018-07-02T20:08:54.857Z,57.92
2018-07-02T20:11:21.524Z,58.58
2018-07-02T20:13:48.154Z,58.19
2018-07-02T20:16:15.197Z,57.81
2018-07-02T20:18:41.857Z,57.81
2018-07-02T20:21:08.540Z,58.18
2018-07-02T20:23:35.209Z,58.57
2018-07-02T20:26:01.869Z,58.73
2018-07-02T20:28:29.140Z,58.58
2018-07-02T20:30:55.804Z,57.92
2018-07-02T20:33:23.836Z,57.93
2018-07-02T20:35:50.549Z,57.97
2018-07-02T20:38:17.194Z,58.13
2018-07-02T20:40:44.735Z,58.52
2018-07-02T20:43:11.377Z,57.95
2018-07-02T20:45:38.025Z,58.45
2018-07-02T20:48:04.833Z,57.74
2018-07-02T20:50:32.453Z,57.64
2018-07-02T20:53:01.472Z,57.81
2018-07-02T20:55:28.125Z,57.39
2018-07-02T20:57:54.782Z,58.49
2018-07-02T21:00:21.442Z,58.43
2018-07-02T21:02:49.047Z,58.26
2018-07-02T21:05:15.681Z,58.35
2018-07-02T21:07:42.337Z,57.82
2018-07-02T21:10:09.005Z,58.57
2018-07-02T21:12:35.652Z,58.68
2018-07-02T21:15:02.288Z,58.15
2018-07-02T21:17:31.611Z,58.27
2018-07-02T21:19:59.529Z,58.39
2018-07-02T21:22:26.164Z,57.71
2018-07-02T21:24:52.796Z,57.49
2018-07-02T21:27:20.276Z,57.37
2018-07-02T21:29:46.920Z,58.24
2018-07-02T21:32:14.572Z,57.89
2018-07-02T21:34:42.150Z,58.36
2018-07-02T21:37:09.733Z,57.82
2018-07-02T21:39:36.372Z,57.94
2018-07-02T21:42:03.039Z,58.27
2018-07-02T21:44:31.681Z,57.41
2018-07-02T21:47:01.016Z,57.79
2018-07-02T21:49:29.689Z,57.35
2018-07-02T21:51:57.280Z,56.34
2018-07-02T21:54:23.928Z,57.10
2018-07-02T21:56:50.711Z,57.24
2018-07-02T21:59:17.362Z,57.61
2018-07-02T22:01:44.016Z,58.17
2018-07-02T22:04:10.653Z,56.56
2018-07-02T22:06:37.317Z,57.53
2018-07-02T22:09:05.513Z,56.56
2018-07-02T22:11:32.424Z,57.68
2018-07-02T22:14:00.038Z,56.38
2018-07-02T22:16:26.697Z,56.87
2018-07-02T22:18:53.348Z,57.76
2018-07-02T22:21:19.995Z,56.98
2018-07-02T22:23:46.683Z,56.67
2018-07-02T22:26:13.329Z,57.14
2018-07-02T22:28:39.973Z,57.81
2018-07-02T22:31:06.622Z,58.06
2018-07-02T22:33:33.281Z,56.86
2018-07-02T22:36:01.522Z,57.54
2018-07-02T22:38:28.256Z,57.66
2018-07-02T22:40:55.877Z,57.62
2018-07-02T22:43:22.550Z,57.13
2018-07-02T22:45:50.124Z,56.94
2018-07-02T22:48:16.773Z,57.69
2018-07-02T22:50:43.429Z,57.87
2018-07-02T22:53:11.041Z,57.45
2018-07-02T22:55:43.404Z,57.46
2018-07-02T22:58:10.858Z,57.60
2018-07-02T23:00:38.373Z,57.22
2018-07-02T23:03:05.932Z,57.50
2018-07-02T23:05:33.516Z,57.43
2018-07-02T23:08:02.092Z,57.19
2018-07-02T23:10:31.292Z,57.81
2018-07-02T23:13:00.121Z,57.43
2018-07-02T23:15:27.664Z,57.25
2018-07-02T23:17:55.149Z,58.14
2018-07-02T23:20:22.766Z,57.63
2018-07-02T23:23:02.029Z,57.18
2018-07-02T23:25:31.793Z,57.44
2018-07-02T23:27:59.529Z,57.44
2018-07-02T23:30:26.633Z,57.75
2018-07-02T23:32:53.272Z,57.23
2018-07-02T23:35:19.953Z,57.21
2018-07-02T23:37:49.324Z,58.03
2018-07-02T23:40:15.972Z,57.62
2018-07-02T23:42:42.625Z,57.42
2018-07-02T23:45:10.585Z,57.36
2018-07-02T23:47:37.344Z,56.70
2018-07-02T23:50:05.055Z,56.98
2018-07-02T23:52:33.044Z,57.24
2018-07-02T23:55:02.060Z,57.12
2018-07-02T23:57:29.830Z,56.13
2018-07-02T23:59:57.424Z,57.18
